Thunder radar more information blitzortung!


Radar de pluja more information rain snow radar


Visita la nostra xarxa de llocs de meteo:

Template documentation
and downloads

And another site



No particular awareness of the weather is required.    There are no Weather-warnings

Pagina Historial Weather Underground text

Diari Resum February 7, 2018 Unitats:  Imperial    Mètric   Tant
« Previous Dia
SegĂźent Dia »
Diari Setmana Mensual Anual Personalitzada
  Maxima: Minima: Media:
Temperatura: TemperatureC °F 0.8 °F 6.1 °F
Punt de rosada: DewpointC °F -7.0 °F -3.1 °F
Humitat: Humidity % 42 % 52 %
Wind Speed: WindSpeedKMH mph 0.0 mph 4.7 mph
RĂ fegues de vent: WindSpeedGustKMH mph - -
Vent:- - SSW
Pression baro: PressurehPa in 1006.0 in -
Precipitacions: 0.0 in    
Historical Graphs
 
 
Dades de taula per February 7, 2018
Temps Temperatura Punt de rosada Pression baro Vent Wind Speed RĂ fegues de vent Humitat Rainfall Rate (Hourly)
TemperatureC °F DewpointC °F PressurehPa in Calm     Humidity % HourlyPrecipMM in
00:03 4.8 °F -0.4 °F 1007.0 in SE 5.6 mph 5.6 mph 69 % 0.0 in
00:08 4.8 °F -0.4 °F 1007.0 in SE 3.7 mph 3.7 mph 69 % 0.0 in
00:13 4.7 °F -0.5 °F 1007.0 in NW 1.9 mph 1.9 mph 69 % 0.0 in
00:18 4.7 °F -0.5 °F 1007.0 in WNW 3.5 mph   69 % 0.0 in
00:23 4.7 °F -0.5 °F 1007.0 in West 5.3 mph 5.3 mph 69 % 0.0 in
00:28 4.7 °F -0.5 °F 1006.0 in West 5.6 mph 5.6 mph 69 % 0.0 in
00:33 4.7 °F -0.5 °F 1006.0 in West 3.7 mph 3.7 mph 69 % 0.0 in
00:38 4.7 °F -0.5 °F 1006.0 in Calm     69 % 0.0 in
00:43 4.7 °F -0.5 °F 1007.0 in West 1.9 mph 1.9 mph 69 % 0.0 in
00:48 4.7 °F -0.5 °F 1007.0 in West 5.8 mph 5.8 mph 69 % 0.0 in
00:53 4.7 °F -0.5 °F 1007.0 in West 3.7 mph 3.7 mph 69 % 0.0 in
00:58 4.7 °F -0.7 °F 1006.0 in NNW 3.7 mph 3.7 mph 68 % 0.0 in
02:25 0.8 °F -4.8 °F 1010.0 in Calm     66 % 0.0 in
02:35 1.1 °F -4.3 °F 1010.0 in West 1.6 mph 1.6 mph 67 % 0.0 in
02:45 1.6 °F -3.9 °F 1010.0 in Calm     67 % 0.0 in
02:55 2.1 °F -3.4 °F 1010.0 in WNW 1.6 mph 3.2 mph 67 % 0.0 in
03:05 2.3 °F -3.6 °F 1010.0 in NNE 1.6 mph 3.2 mph 65 % 0.0 in
03:15 2.7 °F -3.4 °F 1010.0 in NE 3.2 mph 3.2 mph 64 % 0.0 in
03:25 3.1 °F -3.1 °F 1010.0 in Calm   3.2 mph 64 % 0.0 in
03:35 3.0 °F -3.4 °F 1010.0 in ENE 3.2 mph 4.8 mph 63 % 0.0 in
03:45 3.1 °F -3.5 °F 1010.0 in NE 3.2 mph 4.8 mph 62 % 0.0 in
03:55 3.1 °F -3.7 °F 1010.7 in ENE 4.8 mph 4.8 mph 61 % 0.0 in
04:05 3.5 °F -3.1 °F 1010.7 in ENE 3.2 mph 4.8 mph 62 % 0.0 in
04:15 3.7 °F -3.1 °F 1010.7 in ENE 3.2 mph 4.8 mph 61 % 0.0 in
04:25 4.3 °F -2.6 °F 1010.7 in East 3.2 mph 3.2 mph 61 % 0.0 in
04:35 4.8 °F -2.1 °F 1011.7 in ENE 4.8 mph 4.8 mph 61 % 0.0 in
10:38 4.5 °F -2.6 °F 1011.7 in NE 3.9 mph 3.9 mph 60 % 0.0 in
10:43 4.8 °F -2.3 °F 1011.7 in ESE 3.7 mph 3.7 mph 60 % 0.0 in
10:48 5.2 °F -1.9 °F 1011.7 in West 3.9 mph 3.9 mph 60 % 0.0 in
10:53 5.4 °F -1.5 °F 1011.7 in NW 3.7 mph 3.7 mph 61 % 0.0 in
10:58 5.3 °F -2.1 °F 1011.7 in ENE 3.7 mph 3.7 mph 59 % 0.0 in
11:03 5.4 °F -2.0 °F 1011.7 in ENE 3.7 mph 3.7 mph 59 % 0.0 in
11:08 5.4 °F -1.8 °F 1011.7 in WNW 5.6 mph 5.6 mph 60 % 0.0 in
11:13 5.5 °F -1.9 °F 1011.7 in ENE 3.7 mph 3.7 mph 59 % 0.0 in
11:18 5.5 °F -2.1 °F 1011.7 in NE 3.9 mph 3.9 mph 58 % 0.0 in
11:23 5.6 °F -1.8 °F 1011.7 in NNE 7.4 mph 7.4 mph 59 % 0.0 in
11:28 5.7 °F -1.9 °F 1011.7 in NE 3.2 mph 3.2 mph 58 % 0.0 in
11:33 5.9 °F -1.7 °F 1011.7 in NE 5.6 mph 5.6 mph 58 % 0.0 in
11:38 6.2 °F -1.4 °F 1011.7 in NNE 3.7 mph 3.7 mph 58 % 0.0 in
11:43 6.3 °F -1.4 °F 1011.7 in ENE 4.2 mph 4.2 mph 58 % 0.0 in
11:48 6.0 °F -2.1 °F 1011.7 in NE 7.4 mph 7.4 mph 56 % 0.0 in
11:53 6.4 °F -1.5 °F 1011.7 in NE 7.4 mph 7.4 mph 57 % 0.0 in
11:58 6.5 °F -1.4 °F 1011.7 in NNE 3.7 mph 3.9 mph 57 % 0.0 in
12:03 6.7 °F -1.2 °F 1011.7 in NNE 6.1 mph 6.1 mph 57 % 0.0 in
12:08 6.7 °F -1.4 °F 1011.7 in NE 5.6 mph 5.6 mph 56 % 0.0 in
12:13 6.8 °F -1.4 °F 1011.7 in ENE 3.9 mph   56 % 0.0 in
12:18 7.1 °F -1.3 °F 1011.7 in ENE 3.9 mph 3.9 mph 55 % 0.0 in
12:23 7.3 °F -0.9 °F 1011.7 in North 3.7 mph 3.7 mph 56 % 0.0 in
12:28 7.4 °F -1.1 °F 1011.7 in NW 4.2 mph 4.2 mph 55 % 0.0 in
12:33 7.5 °F -0.9 °F 1011.7 in WSW 3.7 mph 3.7 mph 55 % 0.0 in
12:38 7.9 °F -0.3 °F 1011.7 in SW 6.1 mph 6.1 mph 56 % 0.0 in
12:43 8.2 °F -0.3 °F 1011.7 in ESE 6.4 mph 6.4 mph 55 % 0.0 in
12:48 8.2 °F -0.6 °F 1011.7 in SSE 5.6 mph 5.6 mph 54 % 0.0 in
12:53 8.2 °F -0.3 °F 1011.7 in SW 3.7 mph 3.7 mph 55 % 0.0 in
12:58 8.1 °F -0.7 °F 1011.7 in NE 7.4 mph 7.4 mph 54 % 0.0 in
13:03 8.3 °F -0.7 °F 1011.7 in ENE 4.7 mph 4.7 mph 53 % 0.0 in
13:08 8.7 °F -0.3 °F 1011.7 in SSE 4.2 mph 4.2 mph 53 % 0.0 in
13:13 8.6 °F -0.4 °F 1011.7 in ENE 5.6 mph 5.6 mph 53 % 0.0 in
13:18 8.8 °F -0.3 °F 1011.7 in WSW 1.9 mph 2.3 mph 53 % 0.0 in
13:23 9.5 °F 0.7 °F 1011.7 in SW 6.9 mph 6.9 mph 54 % 0.0 in
13:28 9.3 °F 0.4 °F 1011.7 in WSW 10.0 mph 10.0 mph 54 % 0.0 in
13:33 9.2 °F 0.1 °F 1011.7 in West 7.4 mph 7.4 mph 53 % 0.0 in
13:38 9.3 °F -0.1 °F 1011.7 in WSW 11.1 mph 11.1 mph 52 % 0.0 in
13:43 9.4 °F 0.3 °F 1011.7 in WSW 9.3 mph 9.3 mph 53 % 0.0 in
13:48 9.4 °F 0.0 °F 1011.7 in WSW 5.6 mph 5.6 mph 52 % 0.0 in
13:53 9.4 °F 0.0 °F 1011.7 in SW 9.3 mph 9.3 mph 52 % 0.0 in
13:58 9.6 °F -0.1 °F 1011.7 in SW 7.4 mph 7.4 mph 51 % 0.0 in
14:03 9.7 °F 0.3 °F 1011.7 in SSW 9.3 mph 9.3 mph 52 % 0.0 in
14:08 9.6 °F -0.1 °F 1011.7 in WNW 9.3 mph 9.3 mph 51 % 0.0 in
14:13 9.4 °F -0.2 °F 1010.7 in SW 13.0 mph 13.0 mph 51 % 0.0 in
14:18 9.4 °F -0.2 °F 1010.7 in WSW 7.4 mph 7.4 mph 51 % 0.0 in
14:23 9.2 °F -0.4 °F 1010.7 in WSW 11.1 mph 11.1 mph 51 % 0.0 in
14:28 9.2 °F -0.4 °F 1011.7 in WNW 9.3 mph 9.3 mph 51 % 0.0 in
14:33 9.4 °F -0.2 °F 1011.7 in West 9.3 mph 9.3 mph 51 % 0.0 in
14:38 9.5 °F -0.2 °F 1011.7 in WNW 3.7 mph 3.7 mph 51 % 0.0 in
14:43 9.5 °F -0.2 °F 1011.7 in NNW 7.4 mph 7.4 mph 51 % 0.0 in
14:48 9.6 °F -0.1 °F 1011.7 in SW 5.6 mph 5.8 mph 51 % 0.0 in
14:53 9.9 °F 0.2 °F 1011.7 in SW 4.7 mph 4.7 mph 51 % 0.0 in
14:58 10.0 °F 0.3 °F 1011.7 in WSW 7.4 mph 7.4 mph 51 % 0.0 in
15:03 9.9 °F 0.2 °F 1011.7 in West 11.1 mph 11.1 mph 51 % 0.0 in
15:08 9.9 °F -0.1 °F 1011.7 in SSW 5.6 mph 5.6 mph 50 % 0.0 in
15:13 10.0 °F 0.1 °F 1011.7 in WNW 7.4 mph 7.4 mph 50 % 0.0 in
15:18 10.2 °F 0.2 °F 1011.7 in WSW 7.4 mph 7.4 mph 50 % 0.0 in
15:23 10.1 °F -0.2 °F 1011.7 in West 7.4 mph 7.4 mph 49 % 0.0 in
15:28 10.1 °F -0.2 °F 1011.7 in WNW 11.1 mph 11.1 mph 49 % 0.0 in
15:33 10.1 °F -0.4 °F 1011.7 in WNW 14.8 mph 14.8 mph 48 % 0.0 in
15:38 10.0 °F -0.5 °F 1011.7 in NW 9.3 mph 9.3 mph 48 % 0.0 in
15:43 10.1 °F -0.4 °F 1011.7 in WNW 6.4 mph 6.4 mph 48 % 0.0 in
15:48 9.7 °F -1.4 °F 1011.7 in West 16.7 mph 16.7 mph 46 % 0.0 in
15:53 9.7 °F -1.4 °F 1011.7 in West 10.0 mph 10.0 mph 46 % 0.0 in
15:58 9.7 °F -1.4 °F 1011.7 in WSW 5.6 mph 5.6 mph 46 % 0.0 in
16:03 9.8 °F -1.0 °F 1011.7 in SW 7.6 mph 7.6 mph 47 % 0.0 in
16:08 9.8 °F -1.3 °F 1011.7 in WNW 9.3 mph 9.3 mph 46 % 0.0 in
16:13 9.9 °F -0.9 °F 1011.7 in WSW 10.0 mph 10.0 mph 47 % 0.0 in
16:18 9.7 °F -1.4 °F 1011.7 in WNW 13.0 mph 13.0 mph 46 % 0.0 in
16:23 9.6 °F -1.8 °F 1011.7 in WSW 9.3 mph 9.3 mph 45 % 0.0 in
16:28 9.5 °F -1.8 °F 1010.7 in West 5.6 mph 5.6 mph 45 % 0.0 in
16:33 9.5 °F -1.8 °F 1010.7 in NW 6.9 mph 6.9 mph 45 % 0.0 in
16:38 9.5 °F -1.8 °F 1010.7 in West 9.3 mph 9.3 mph 45 % 0.0 in
16:43 9.4 °F -1.9 °F 1011.7 in WSW 11.9 mph 11.9 mph 45 % 0.0 in
16:48 9.4 °F -1.9 °F 1011.7 in West 11.1 mph 11.1 mph 45 % 0.0 in
16:53 9.4 °F -1.9 °F 1011.7 in WNW 6.4 mph 6.4 mph 45 % 0.0 in
16:58 9.4 °F -2.3 °F 1011.7 in West 11.1 mph 11.1 mph 44 % 0.0 in
17:03 9.3 °F -2.3 °F 1011.7 in WNW 5.6 mph 5.6 mph 44 % 0.0 in
17:08 9.2 °F -2.4 °F 1011.7 in WSW 7.4 mph 7.4 mph 44 % 0.0 in
17:13 9.1 °F -2.6 °F 1011.7 in South 13.0 mph 13.0 mph 44 % 0.0 in
17:18 9.1 °F -2.6 °F 1011.7 in WSW 3.7 mph 3.7 mph 44 % 0.0 in
17:23 8.9 °F -3.0 °F 1011.7 in WSW 16.7 mph 16.7 mph 43 % 0.0 in
17:28 8.7 °F -3.2 °F 1011.7 in West 9.3 mph 9.3 mph 43 % 0.0 in
17:33 8.5 °F -3.4 °F 1011.7 in NW 9.3 mph 9.3 mph 43 % 0.0 in
17:38 8.4 °F -3.5 °F 1011.7 in West 9.3 mph 9.3 mph 43 % 0.0 in
17:43 8.2 °F -3.9 °F 1011.7 in SW 7.4 mph 7.4 mph 42 % 0.0 in
17:48 8.1 °F -3.7 °F 1011.7 in West 6.1 mph 6.1 mph 43 % 0.0 in
17:53 7.9 °F -3.9 °F 1011.7 in West 5.6 mph 5.6 mph 43 % 0.0 in
17:58 7.7 °F -4.1 °F 1012.8 in WSW 5.6 mph 5.6 mph 43 % 0.0 in
18:03 7.4 °F -4.1 °F 1012.8 in WSW 7.4 mph 7.4 mph 44 % 0.0 in
18:08 7.3 °F -4.2 °F 1012.8 in WSW 5.6 mph 5.6 mph 44 % 0.0 in
18:13 7.1 °F -4.3 °F 1012.8 in WNW 3.7 mph 3.7 mph 44 % 0.0 in
18:18 6.9 °F -4.6 °F 1012.8 in Calm     44 % 0.0 in
18:23 6.8 °F -4.6 °F 1012.8 in WSW 1.9 mph   44 % 0.0 in
18:28 6.6 °F -4.5 °F 1012.8 in WSW 2.3 mph   45 % 0.0 in
18:33 6.4 °F -4.7 °F 1012.8 in WSW 1.9 mph   45 % 0.0 in
18:38 6.2 °F -4.9 °F 1012.8 in WSW 2.3 mph 2.3 mph 45 % 0.0 in
18:43 6.1 °F -4.9 °F 1013.8 in WSW 3.7 mph 3.7 mph 45 % 0.0 in
18:48 6.0 °F -5.1 °F 1013.8 in WSW 2.6 mph   45 % 0.0 in
18:53 6.0 °F -4.8 °F 1013.8 in WSW 2.3 mph 2.3 mph 46 % 0.0 in
18:58 5.9 °F -4.8 °F 1013.8 in WSW 3.7 mph 3.7 mph 46 % 0.0 in
19:03 5.8 °F -4.9 °F 1013.8 in WSW 3.7 mph 3.7 mph 46 % 0.0 in
19:08 5.6 °F -5.1 °F 1013.8 in Calm     46 % 0.0 in
19:13 5.3 °F -5.4 °F 1012.8 in WSW 1.9 mph   46 % 0.0 in
19:18 5.0 °F -5.7 °F 1012.8 in SW 3.7 mph 3.7 mph 46 % 0.0 in
19:23 4.8 °F -5.9 °F 1012.8 in WSW 3.7 mph 3.7 mph 46 % 0.0 in
19:28 4.8 °F -5.9 °F 1013.8 in WSW 3.2 mph 3.2 mph 46 % 0.0 in
19:33 4.8 °F -5.9 °F 1013.8 in WSW 3.7 mph 3.7 mph 46 % 0.0 in
19:38 4.7 °F -5.9 °F 1013.8 in Calm     46 % 0.0 in
19:43 4.6 °F -5.8 °F 1012.8 in WSW 1.9 mph 1.9 mph 47 % 0.0 in
19:48 4.6 °F -5.8 °F 1012.8 in Calm     47 % 0.0 in
19:53 4.5 °F -5.8 °F 1012.8 in Calm     47 % 0.0 in
19:58 4.5 °F -5.8 °F 1012.8 in Calm     47 % 0.0 in
20:03 4.5 °F -5.8 °F 1012.8 in SW 1.9 mph 1.9 mph 47 % 0.0 in
20:08 4.5 °F -5.8 °F 1012.8 in SW 1.9 mph   47 % 0.0 in
20:13 4.4 °F -5.9 °F 1013.8 in Calm     47 % 0.0 in
20:18 4.3 °F -6.1 °F 1013.8 in Calm     47 % 0.0 in
20:23 4.2 °F -6.1 °F 1013.8 in Calm     47 % 0.0 in
20:28 4.2 °F -5.8 °F 1013.8 in SW 1.9 mph 1.9 mph 48 % 0.0 in
20:33 4.1 °F -6.2 °F 1013.8 in Calm     47 % 0.0 in
20:38 4.2 °F -6.1 °F 1013.8 in Calm     47 % 0.0 in
20:43 4.2 °F -6.1 °F 1013.8 in Calm     47 % 0.0 in
20:48 4.2 °F -6.1 °F 1013.8 in Calm     47 % 0.0 in
20:53 4.2 °F -6.1 °F 1013.8 in Calm     47 % 0.0 in
20:58 4.3 °F -6.3 °F 1013.8 in Calm     46 % 0.0 in
21:03 4.3 °F -6.3 °F 1013.8 in ESE 4.2 mph 4.2 mph 46 % 0.0 in
21:08 3.8 °F -6.5 °F 1013.8 in ENE 5.6 mph 5.6 mph 47 % 0.0 in
21:13 3.6 °F -6.4 °F 1013.8 in ENE 2.6 mph 2.6 mph 48 % 0.0 in
21:18 3.6 °F -6.4 °F 1013.8 in NE 2.6 mph   48 % 0.0 in
21:23 3.5 °F -6.5 °F 1013.8 in Calm     48 % 0.0 in
21:28 3.3 °F -6.4 °F 1013.8 in WNW 1.9 mph 2.6 mph 49 % 0.0 in
21:33 3.0 °F -6.7 °F 1013.8 in WSW 3.7 mph 3.7 mph 49 % 0.0 in
21:39 2.8 °F -6.6 °F 1013.8 in WSW 3.7 mph 3.7 mph 50 % 0.0 in
21:44 2.7 °F -6.7 °F 1013.8 in Calm     50 % 0.0 in
21:49 2.6 °F -6.8 °F 1013.8 in Calm     50 % 0.0 in
21:54 2.5 °F -6.6 °F 1013.8 in Calm     51 % 0.0 in
21:59 2.5 °F -6.6 °F 1014.8 in NNE 2.6 mph 2.6 mph 51 % 0.0 in
22:04 2.7 °F -6.4 °F 1014.8 in NNE 3.7 mph 3.7 mph 51 % 0.0 in
22:09 2.6 °F -6.6 °F 1014.8 in NNE 1.9 mph 1.9 mph 51 % 0.0 in
22:14 2.5 °F -6.6 °F 1014.8 in NNW 3.2 mph 3.2 mph 51 % 0.0 in
22:19 2.4 °F -6.7 °F 1014.8 in Calm     51 % 0.0 in
22:24 2.5 °F -6.6 °F 1014.8 in WSW 3.9 mph 3.9 mph 51 % 0.0 in
22:29 2.2 °F -6.9 °F 1014.8 in WSW 3.9 mph 3.9 mph 51 % 0.0 in
22:34 2.1 °F -7.0 °F 1014.8 in WSW 4.2 mph 4.2 mph 51 % 0.0 in
22:39 2.2 °F -6.9 °F 1014.8 in SW 4.2 mph 4.2 mph 51 % 0.0 in
22:44 2.5 °F -6.6 °F 1014.8 in WSW 3.9 mph 3.9 mph 51 % 0.0 in
22:49 2.9 °F -6.3 °F 1014.8 in WSW 5.6 mph 5.6 mph 51 % 0.0 in
22:54 3.1 °F -6.1 °F 1014.8 in WNW 2.3 mph   51 % 0.0 in
22:59 3.1 °F -6.1 °F 1015.8 in WNW 3.7 mph 3.7 mph 51 % 0.0 in
23:04 3.2 °F -6.0 °F 1015.8 in West 3.7 mph 3.7 mph 51 % 0.0 in
23:09 3.3 °F -5.9 °F 1015.8 in WNW 1.9 mph   51 % 0.0 in
23:14 3.2 °F -6.0 °F 1014.8 in WNW 1.9 mph   51 % 0.0 in
23:19 3.1 °F -6.1 °F 1014.8 in West 1.9 mph 1.9 mph 51 % 0.0 in
23:24 3.1 °F -6.1 °F 1014.8 in West 3.2 mph 3.2 mph 51 % 0.0 in
23:29 3.0 °F -6.2 °F 1014.8 in WSW 1.9 mph 1.9 mph 51 % 0.0 in
23:34 2.9 °F -6.3 °F 1014.8 in West 1.9 mph 1.9 mph 51 % 0.0 in
23:39 3.0 °F -6.2 °F 1014.8 in WSW 3.9 mph 3.9 mph 51 % 0.0 in
23:44 3.0 °F -6.2 °F 1015.8 in WSW 3.7 mph 3.7 mph 51 % 0.0 in
23:49 3.1 °F -6.1 °F 1015.8 in West 3.7 mph 3.9 mph 51 % 0.0 in
23:54 3.0 °F -6.4 °F 1015.8 in WNW 3.7 mph   50 % 0.0 in
23:56 3.0 °F -6.4 °F 1015.8 in West 3.7 mph   50 % 0.0 in
Meteo Sesrovires
Elogis d' Weather Underground - 2 mb

Guio original per  Jim McMurry - jmcmurry@mwt.net Adaptat per a la plantilla per  Wim van der Kuil - Leuven-Template.eu

Trobareu la nostra informacio del temps tambe a:

Weather Underground

AWEKAS